Time;durP1;ratioP1;P1;durP2;ratioP2;P2;SDS_P1;SDS_P2;PMS_P1;PMS_P2;Temp;Humidity;BMP_temperature;BMP_pressure;BME280_temperature;BME280_humidity;BME280_pressure;Samples;Min_cycle;Max_cycle;Signal;HPM_P1;HPM_P2
2022/04/12 00:00:32;;;;;;;0.50;0.50;;;10.60;99.90;;;;;;5060363;28;20204;-65
2022/04/12 00:02:59;;;;;;;0.50;0.50;;;10.60;99.90;;;;;;5053056;28;20333;-65
2022/04/12 00:05:26;;;;;;;0.67;0.67;;;10.60;99.90;;;;;;5051241;28;20406;-65
2022/04/12 00:07:55;;;;;;;0.50;0.50;;;10.60;99.90;;;;;;5049758;28;20204;-66
2022/04/12 00:10:22;;;;;;;0.57;0.57;;;10.50;99.90;;;;;;5051532;28;20226;-66
2022/04/12 00:12:49;;;;;;;0.50;0.50;;;10.50;99.90;;;;;;5055220;28;20223;-66
2022/04/12 00:15:16;;;;;;;0.40;0.40;;;10.50;99.90;;;;;;5057498;28;20223;-66
2022/04/12 00:20:28;;;;;;;0.37;0.37;;;10.40;99.90;;;;;;5056898;28;20277;-64
2022/04/12 00:22:57;;;;;;;0.57;0.57;;;10.40;99.90;;;;;;5057403;28;20254;-64
2022/04/12 00:25:25;;;;;;;0.50;0.50;;;10.30;99.90;;;;;;5051157;28;20274;-64
2022/04/12 00:27:55;;;;;;;0.50;0.50;;;10.30;99.90;;;;;;5053057;22;20305;-69
2022/04/12 00:30:24;;;;;;;0.40;0.40;;;10.30;99.90;;;;;;5038549;28;20196;-67
2022/04/12 00:32:52;;;;;;;0.60;0.60;;;10.30;99.90;;;;;;5030677;28;20296;-68
2022/04/12 00:35:20;;;;;;;0.60;0.60;;;10.30;99.90;;;;;;5028821;28;20205;-68
2022/04/12 00:37:48;;;;;;;0.40;0.40;;;10.20;99.90;;;;;;5032250;28;20231;-68
2022/04/12 00:40:18;;;;;;;0.53;0.53;;;10.20;99.90;;;;;;5042714;28;20204;-68
2022/04/12 00:42:44;;;;;;;0.60;0.60;;;10.20;99.90;;;;;;5042767;28;20739;-69
2022/04/12 00:45:12;;;;;;;0.50;0.50;;;10.20;99.90;;;;;;5041231;28;20222;-68
2022/04/12 00:51:01;;;;;;;0.47;0.47;;;10.10;99.90;;;;;;5020952;28;20207;-69
2022/04/12 00:53:29;;;;;;;0.60;0.60;;;10.00;99.90;;;;;;5031265;28;20255;-69
2022/04/12 00:55:58;;;;;;;0.40;0.40;;;10.00;99.90;;;;;;5031663;28;20285;-68
2022/04/12 00:58:25;;;;;;;0.60;0.60;;;10.00;99.90;;;;;;5031359;28;20312;-68
2022/04/12 01:21:06;;;;;;;0.60;0.60;;;9.60;99.90;;;;;;5030811;28;20345;-68
2022/04/12 01:23:42;;;;;;;0.70;0.70;;;9.60;99.90;;;;;;5027439;28;20204;-67
2022/04/12 01:26:11;;;;;;;0.60;0.60;;;9.60;99.90;;;;;;5030890;28;20289;-69
2022/04/12 01:28:38;;;;;;;0.60;0.60;;;9.50;99.90;;;;;;5030424;28;20326;-67
2022/04/12 01:31:06;;;;;;;0.50;0.50;;;9.60;99.90;;;;;;5030283;28;20232;-67
2022/04/12 01:33:33;;;;;;;0.60;0.60;;;9.60;99.90;;;;;;5031825;28;20216;-68
2022/04/12 01:36:00;;;;;;;0.60;0.60;;;9.60;99.90;;;;;;5030009;28;20228;-69
2022/04/12 01:38:28;;;;;;;0.50;0.50;;;9.50;99.90;;;;;;5031500;28;20259;-67
2022/04/12 01:40:55;;;;;;;0.50;0.50;;;9.50;99.90;;;;;;5031722;28;20208;-68
2022/04/12 01:43:23;;;;;;;0.80;0.67;;;9.50;99.90;;;;;;5031363;28;20212;-68
2022/04/12 01:45:50;;;;;;;0.50;0.50;;;9.50;99.90;;;;;;5030468;28;20214;-69
2022/04/12 01:48:17;;;;;;;0.43;0.43;;;9.50;99.90;;;;;;5031132;28;20228;-67
2022/04/12 01:50:43;;;;;;;0.40;0.40;;;9.50;99.90;;;;;;5031734;28;20303;-67
2022/04/12 01:53:10;;;;;;;0.50;0.50;;;9.50;99.90;;;;;;5031560;28;20342;-67
2022/04/12 01:55:37;;;;;;;0.43;0.43;;;9.50;99.90;;;;;;5030954;28;20636;-67
2022/04/12 01:58:04;;;;;;;0.40;0.40;;;9.50;99.90;;;;;;5030540;28;20220;-68
2022/04/12 02:00:34;;;;;;;0.57;0.57;;;9.50;99.90;;;;;;5030636;28;20208;-69
2022/04/12 02:03:00;;;;;;;0.47;0.47;;;9.50;99.90;;;;;;5030835;28;20291;-69
2022/04/12 02:05:27;;;;;;;0.30;0.30;;;9.50;99.90;;;;;;5030790;28;20300;-69
2022/04/12 02:07:54;;;;;;;0.40;0.40;;;9.50;99.90;;;;;;5030278;28;20239;-68
2022/04/12 02:10:22;;;;;;;0.60;0.60;;;9.50;99.90;;;;;;5033608;28;20292;-67
2022/04/12 02:12:49;;;;;;;0.50;0.50;;;9.50;99.90;;;;;;5035014;28;20204;-68
2022/04/12 02:15:16;;;;;;;0.43;0.43;;;9.50;99.90;;;;;;5031217;28;20297;-68
2022/04/12 02:17:44;;;;;;;0.60;0.60;;;9.50;99.90;;;;;;5030576;28;20224;-68
2022/04/12 02:20:12;;;;;;;0.57;0.57;;;9.50;99.90;;;;;;5031068;28;20365;-68
2022/04/12 02:22:38;;;;;;;0.50;0.50;;;9.40;99.90;;;;;;5031008;28;20295;-67
2022/04/12 02:25:06;;;;;;;0.40;0.40;;;9.40;99.90;;;;;;5034801;28;20201;-67
2022/04/12 02:27:34;;;;;;;0.47;0.47;;;9.30;99.90;;;;;;5031557;28;20233;-69
2022/04/12 02:30:00;;;;;;;0.40;0.40;;;9.30;99.90;;;;;;5029573;28;20255;-67
2022/04/12 02:32:28;;;;;;;0.50;0.50;;;9.30;99.90;;;;;;5030397;28;20230;-68
2022/04/12 02:35:00;;;;;;;0.50;0.50;;;9.30;99.90;;;;;;5030450;28;20250;-68
2022/04/12 02:37:27;;;;;;;0.70;0.70;;;9.30;99.90;;;;;;5029214;28;20231;-66
2022/04/12 02:39:54;;;;;;;1.10;0.60;;;9.30;99.90;;;;;;5029321;28;20778;-67
2022/04/12 02:42:21;;;;;;;0.40;0.40;;;9.20;99.90;;;;;;5029683;28;20295;-67
2022/04/12 02:44:48;;;;;;;0.60;0.60;;;9.20;99.90;;;;;;5031366;28;20308;-67
2022/04/12 02:47:15;;;;;;;0.50;0.50;;;9.20;99.90;;;;;;5029615;28;20228;-69
2022/04/12 02:49:42;;;;;;;0.50;0.50;;;9.10;99.90;;;;;;5033864;28;20574;-68
2022/04/12 02:52:10;;;;;;;0.57;0.57;;;9.10;99.90;;;;;;5036776;28;20247;-68
2022/04/12 02:54:37;;;;;;;0.53;0.53;;;9.00;99.90;;;;;;5033526;28;20292;-69
2022/04/12 02:57:04;;;;;;;0.43;0.43;;;9.10;99.90;;;;;;5032841;28;20307;-67
2022/04/12 02:59:31;;;;;;;0.43;0.43;;;9.00;99.90;;;;;;5033813;28;20200;-69
2022/04/12 03:01:58;;;;;;;0.70;0.70;;;9.00;99.90;;;;;;5033722;28;20240;-67
2022/04/12 03:04:25;;;;;;;0.60;0.60;;;9.10;99.90;;;;;;5034077;28;20236;-68
2022/04/12 03:06:51;;;;;;;0.50;0.50;;;9.00;99.90;;;;;;5033404;28;20287;-69
2022/04/12 03:09:20;;;;;;;0.60;0.60;;;9.00;99.90;;;;;;5033531;28;20211;-68
2022/04/12 03:11:47;;;;;;;0.67;0.67;;;9.00;99.90;;;;;;5033265;28;20295;-68
2022/04/12 03:14:13;;;;;;;0.50;0.50;;;9.10;99.90;;;;;;5033822;28;20236;-69
2022/04/12 03:16:42;;;;;;;0.40;0.40;;;9.10;99.90;;;;;;5032395;28;20225;-68
2022/04/12 03:19:09;;;;;;;0.77;0.53;;;9.10;99.90;;;;;;5034462;28;20567;-67
2022/04/12 03:21:36;;;;;;;0.47;0.47;;;9.20;99.90;;;;;;5038874;28;20205;-67
2022/04/12 03:24:03;;;;;;;0.50;0.50;;;9.20;99.90;;;;;;5049805;28;20212;-68
2022/04/12 03:26:31;;;;;;;0.60;0.60;;;9.20;99.90;;;;;;5042944;28;20285;-68
2022/04/12 03:28:58;;;;;;;0.60;0.60;;;9.20;99.90;;;;;;5043361;28;20243;-68
2022/04/12 03:31:25;;;;;;;0.60;0.60;;;9.10;99.90;;;;;;5040367;28;20236;-69
2022/04/12 03:33:52;;;;;;;0.50;0.50;;;9.10;99.90;;;;;;5034580;28;20209;-67
2022/04/12 03:36:19;;;;;;;0.40;0.40;;;9.10;99.90;;;;;;5035151;28;20247;-67
2022/04/12 03:38:49;;;;;;;0.67;0.67;;;9.10;99.90;;;;;;5034385;28;20268;-68
2022/04/12 03:41:18;;;;;;;0.70;0.70;;;9.00;99.90;;;;;;5037493;28;20208;-68
2022/04/12 03:43:47;;;;;;;0.50;0.50;;;8.90;99.90;;;;;;5036787;28;20209;-67
2022/04/12 03:46:13;;;;;;;0.70;0.70;;;8.90;99.90;;;;;;5039148;28;20232;-68
2022/04/12 03:48:40;;;;;;;0.60;0.60;;;8.90;99.90;;;;;;5041354;28;20251;-68
2022/04/12 03:51:07;;;;;;;0.80;0.80;;;8.90;99.90;;;;;;5039063;28;20296;-67
2022/04/12 03:53:36;;;;;;;0.53;0.53;;;8.80;99.90;;;;;;5037240;28;20232;-69
2022/04/12 03:56:04;;;;;;;0.50;0.50;;;8.80;99.90;;;;;;5034418;28;20683;-67
2022/04/12 03:58:31;;;;;;;0.53;0.53;;;8.80;99.90;;;;;;5035734;28;20239;-68
2022/04/12 04:00:59;;;;;;;0.53;0.53;;;8.80;99.90;;;;;;5036156;28;20204;-68
2022/04/12 04:03:26;;;;;;;0.70;0.70;;;8.80;99.90;;;;;;5036724;28;20820;-67
2022/04/12 04:05:53;;;;;;;0.50;0.50;;;8.70;99.90;;;;;;5042620;28;20235;-67
2022/04/12 04:08:20;;;;;;;0.77;0.77;;;8.60;99.90;;;;;;5038317;28;20229;-69
2022/04/12 04:10:47;;;;;;;0.53;0.53;;;8.60;99.90;;;;;;5033277;28;20208;-69
2022/04/12 04:13:14;;;;;;;0.60;0.60;;;8.60;99.90;;;;;;5040996;28;20248;-68
2022/04/12 04:15:42;;;;;;;0.50;0.50;;;8.60;99.90;;;;;;5043710;28;20200;-68
2022/04/12 04:18:11;;;;;;;0.57;0.57;;;8.50;99.90;;;;;;5033880;28;20224;-69
2022/04/12 04:20:38;;;;;;;0.63;0.63;;;8.60;99.90;;;;;;5034758;28;20307;-67
2022/04/12 04:23:05;;;;;;;0.60;0.60;;;8.60;99.90;;;;;;5034767;28;20211;-68
2022/04/12 04:25:32;;;;;;;0.70;0.60;;;8.60;99.90;;;;;;5031578;28;20635;-69
2022/04/12 04:27:59;;;;;;;0.70;0.70;;;8.60;99.90;;;;;;5031605;28;20614;-69
2022/04/12 04:30:26;;;;;;;0.70;0.70;;;8.50;99.90;;;;;;5032593;28;20295;-67
2022/04/12 04:32:53;;;;;;;0.80;0.80;;;8.50;99.90;;;;;;5039004;28;20268;-68
2022/04/12 04:35:21;;;;;;;0.80;0.80;;;8.50;99.90;;;;;;5036095;28;20431;-66
2022/04/12 04:37:50;;;;;;;0.60;0.60;;;8.40;99.90;;;;;;5037365;28;20303;-69
2022/04/12 04:40:18;;;;;;;0.60;0.60;;;8.40;99.90;;;;;;5032794;28;20682;-67
2022/04/12 04:42:45;;;;;;;0.73;0.73;;;8.40;99.90;;;;;;5032557;28;20255;-67
2022/04/12 04:45:13;;;;;;;0.80;0.80;;;8.40;99.90;;;;;;5033805;28;20671;-67
2022/04/12 04:47:49;;;;;;;1.17;0.90;;;8.40;99.90;;;;;;5034618;28;20228;-69
2022/04/12 04:50:17;;;;;;;0.73;0.73;;;8.40;99.90;;;;;;5034712;28;20670;-67
2022/04/12 04:52:45;;;;;;;0.90;0.90;;;8.40;99.90;;;;;;5035641;28;20307;-69
2022/04/12 04:55:12;;;;;;;0.80;0.80;;;8.40;99.90;;;;;;5031576;28;20240;-67
2022/04/12 04:57:40;;;;;;;0.80;0.80;;;8.40;99.90;;;;;;5031260;28;20672;-67
2022/04/12 05:00:09;;;;;;;1.63;0.90;;;8.40;99.90;;;;;;5034609;28;20232;-69
2022/04/12 05:02:36;;;;;;;0.60;0.60;;;8.40;99.90;;;;;;5035367;28;20730;-67
2022/04/12 05:05:04;;;;;;;0.90;0.90;;;8.40;99.90;;;;;;5032566;28;20301;-68
2022/04/12 05:07:31;;;;;;;0.90;0.90;;;8.40;99.90;;;;;;5030891;28;20271;-69
2022/04/12 05:09:59;;;;;;;1.47;1.20;;;8.40;99.90;;;;;;5031434;28;20205;-68
2022/04/12 05:12:26;;;;;;;0.90;0.90;;;8.40;99.90;;;;;;5030904;28;20730;-71
2022/04/12 05:14:54;;;;;;;1.00;1.00;;;8.40;99.90;;;;;;5030130;28;20673;-68
2022/04/12 05:17:25;;;;;;;1.00;1.00;;;8.40;99.90;;;;;;5029119;28;20304;-68
2022/04/12 05:19:52;;;;;;;1.00;1.00;;;8.40;99.90;;;;;;5031027;28;20200;-70
2022/04/12 05:22:19;;;;;;;0.87;0.87;;;8.40;99.90;;;;;;5031972;28;20243;-68
2022/04/12 05:24:46;;;;;;;1.00;1.00;;;8.50;99.90;;;;;;5033936;28;20617;-68
2022/04/12 05:27:15;;;;;;;0.90;0.90;;;8.50;99.90;;;;;;5033655;28;20305;-68
2022/04/12 05:29:42;;;;;;;0.90;0.90;;;8.40;99.90;;;;;;5037070;28;20200;-69
2022/04/12 05:32:09;;;;;;;0.93;0.93;;;8.50;99.90;;;;;;5037717;28;20224;-68
2022/04/12 05:34:37;;;;;;;0.90;0.90;;;8.60;99.90;;;;;;5035843;28;20239;-69
2022/04/12 05:37:04;;;;;;;1.00;1.00;;;8.60;99.90;;;;;;5038963;28;20232;-69
2022/04/12 05:39:31;;;;;;;1.07;1.07;;;8.70;99.90;;;;;;5048529;28;20268;-71
2022/04/12 05:42:00;;;;;;;0.97;0.97;;;8.70;99.90;;;;;;5047876;28;20260;-70
2022/04/12 05:44:28;;;;;;;1.00;1.00;;;8.70;99.90;;;;;;5047046;28;20204;-71
2022/04/12 05:46:55;;;;;;;1.30;1.20;;;8.80;99.90;;;;;;5037960;28;20221;-68
2022/04/12 05:49:22;;;;;;;0.90;0.90;;;9.00;99.90;;;;;;5034549;28;20394;-68
2022/04/12 05:51:50;;;;;;;1.20;1.10;;;9.10;99.90;;;;;;5034781;28;20195;-68
2022/04/12 05:54:17;;;;;;;1.10;1.10;;;9.20;99.90;;;;;;5034166;28;20204;-69
2022/04/12 05:56:43;;;;;;;1.00;1.00;;;9.30;99.90;;;;;;5032687;28;20267;-69
2022/04/12 05:59:11;;;;;;;1.20;1.20;;;9.40;99.90;;;;;;5034656;28;20201;-69
2022/04/12 06:01:39;;;;;;;1.00;1.00;;;9.60;99.90;;;;;;5032972;28;20296;-69
2022/04/12 06:04:07;;;;;;;0.90;0.90;;;9.80;99.90;;;;;;5043047;28;20204;-69
2022/04/12 06:06:34;;;;;;;0.90;0.90;;;9.90;99.90;;;;;;5033681;28;20231;-69
2022/04/12 06:09:02;;;;;;;0.80;0.80;;;10.10;99.90;;;;;;5039241;28;20315;-70
2022/04/12 06:11:29;;;;;;;0.80;0.80;;;10.20;99.90;;;;;;5033005;28;20197;-69
2022/04/12 06:13:56;;;;;;;0.90;0.90;;;10.40;99.90;;;;;;5037836;28;20292;-70
2022/04/12 06:16:23;;;;;;;1.17;1.07;;;10.50;99.90;;;;;;5033281;28;20293;-67
2022/04/12 06:18:51;;;;;;;0.80;0.80;;;10.70;99.90;;;;;;5031886;28;20287;-69
2022/04/12 06:21:18;;;;;;;0.80;0.80;;;10.80;99.90;;;;;;5032919;28;20204;-68
2022/04/12 06:23:45;;;;;;;1.00;1.00;;;10.90;99.90;;;;;;5032178;28;20328;-67
2022/04/12 06:26:12;;;;;;;0.90;0.90;;;11.00;99.90;;;;;;5035430;28;20263;-69
2022/04/12 06:28:39;;;;;;;1.00;1.00;;;11.10;99.90;;;;;;5045209;28;20244;-69
2022/04/12 06:31:06;;;;;;;1.00;1.00;;;11.20;99.90;;;;;;5051218;28;20227;-68
2022/04/12 06:33:33;;;;;;;1.27;0.80;;;11.30;99.90;;;;;;5060036;22;21073;-65
2022/04/12 06:36:01;;;;;;;1.20;1.10;;;11.50;99.90;;;;;;5032699;28;20216;-67
2022/04/12 06:38:28;;;;;;;1.20;1.20;;;11.50;99.90;;;;;;5031882;28;20223;-65
2022/04/12 06:40:55;;;;;;;0.90;0.90;;;11.50;99.90;;;;;;5032637;28;20287;-65
2022/04/12 06:43:21;;;;;;;2.80;1.20;;;11.50;99.90;;;;;;5032735;28;20666;-67
2022/04/12 06:45:48;;;;;;;1.07;1.07;;;11.40;99.90;;;;;;5030906;28;20204;-64
2022/04/12 06:48:15;;;;;;;1.23;1.20;;;11.50;99.90;;;;;;5030365;28;20287;-66
2022/04/12 06:50:42;;;;;;;1.13;1.13;;;11.50;99.90;;;;;;5031894;28;20247;-65
2022/04/12 06:53:10;;;;;;;1.07;1.00;;;11.70;99.90;;;;;;5031544;28;20303;-64
2022/04/12 06:55:37;;;;;;;1.00;1.00;;;11.80;99.90;;;;;;5031220;28;20308;-65
2022/04/12 06:58:04;;;;;;;1.20;1.20;;;11.80;99.90;;;;;;5031783;28;20208;-65
2022/04/12 07:00:31;;;;;;;1.03;1.03;;;11.90;99.90;;;;;;5020356;28;20303;-66
2022/04/12 07:02:58;;;;;;;1.00;1.00;;;12.00;99.90;;;;;;5027713;28;20262;-67
2022/04/12 07:05:25;;;;;;;0.93;0.93;;;12.10;99.90;;;;;;5021277;28;20204;-67
2022/04/12 07:07:54;;;;;;;1.10;1.10;;;12.20;99.90;;;;;;5021615;28;20684;-66
2022/04/12 07:10:23;;;;;;;1.20;1.10;;;12.20;99.90;;;;;;5030924;28;20228;-66
2022/04/12 07:12:53;;;;;;;1.10;1.10;;;12.20;99.90;;;;;;5040569;28;20253;-65
2022/04/12 07:15:20;;;;;;;1.10;1.00;;;12.20;99.90;;;;;;5028121;28;20201;-65
2022/04/12 07:17:47;;;;;;;1.30;1.20;;;12.20;99.90;;;;;;5026215;28;20241;-67
2022/04/12 07:20:14;;;;;;;1.07;1.07;;;12.20;99.90;;;;;;5027305;28;20200;-67
2022/04/12 07:22:41;;;;;;;1.90;1.30;;;12.40;99.90;;;;;;5029851;28;20256;-67
2022/04/12 07:25:09;;;;;;;1.00;1.00;;;12.40;99.90;;;;;;5031479;28;20894;-65
2022/04/12 07:27:38;;;;;;;1.10;1.10;;;12.50;99.90;;;;;;5026334;28;20236;-67
2022/04/12 07:30:07;;;;;;;1.17;1.17;;;12.60;99.90;;;;;;5028538;28;20303;-67
2022/04/12 07:32:34;;;;;;;1.07;1.00;;;12.60;99.90;;;;;;5024271;28;20291;-65
2022/04/12 07:35:01;;;;;;;0.97;0.97;;;12.50;99.90;;;;;;5030999;28;20196;-68
2022/04/12 07:37:28;;;;;;;1.10;1.10;;;12.60;99.90;;;;;;5032627;28;20315;-68
2022/04/12 07:39:56;;;;;;;0.90;0.90;;;12.70;99.90;;;;;;5031363;28;20245;-66
2022/04/12 07:42:23;;;;;;;1.10;1.10;;;12.80;99.90;;;;;;5035266;28;20499;-67
2022/04/12 07:44:52;;;;;;;1.00;1.00;;;12.90;99.90;;;;;;5034593;28;20208;-67
2022/04/12 07:47:19;;;;;;;1.20;1.10;;;13.10;99.90;;;;;;5045521;28;20205;-68
2022/04/12 07:49:46;;;;;;;0.90;0.90;;;13.10;99.90;;;;;;5044799;28;20283;-68
2022/04/12 07:52:13;;;;;;;2.13;1.07;;;13.10;99.90;;;;;;5044773;28;20232;-68
2022/04/12 07:54:40;;;;;;;1.03;1.03;;;13.10;99.90;;;;;;5042370;28;20231;-69
2022/04/12 07:57:07;;;;;;;0.97;0.97;;;13.20;99.90;;;;;;5031440;28;20283;-66
2022/04/12 07:59:34;;;;;;;0.90;0.90;;;13.30;99.90;;;;;;5027057;28;20307;-68
2022/04/12 08:02:03;;;;;;;0.93;0.90;;;13.30;99.90;;;;;;5026613;28;20250;-65
2022/04/12 08:04:30;;;;;;;1.07;0.97;;;13.40;99.90;;;;;;5032226;28;20234;-68
2022/04/12 08:06:57;;;;;;;1.03;1.03;;;13.60;99.90;;;;;;5028648;28;20196;-66
2022/04/12 08:09:24;;;;;;;1.10;1.10;;;13.70;99.90;;;;;;5023457;28;20228;-67
2022/04/12 08:11:51;;;;;;;1.17;1.17;;;13.80;99.90;;;;;;5020256;28;20284;-66
2022/04/12 08:14:17;;;;;;;1.37;1.20;;;14.00;99.90;;;;;;5024242;28;20324;-66
2022/04/12 08:16:46;;;;;;;1.00;1.00;;;14.20;99.90;;;;;;5030154;28;20205;-67
2022/04/12 08:19:14;;;;;;;1.33;1.20;;;14.30;99.90;;;;;;5028627;28;20204;-66
2022/04/12 08:21:42;;;;;;;1.33;1.23;;;14.40;99.90;;;;;;5029758;28;20291;-69
2022/04/12 08:24:09;;;;;;;1.00;1.00;;;14.50;99.90;;;;;;5027450;28;20235;-67
2022/04/12 08:26:36;;;;;;;1.00;1.00;;;14.50;99.90;;;;;;5031960;28;20220;-66
2022/04/12 08:29:03;;;;;;;1.20;1.20;;;14.40;99.90;;;;;;5028838;28;20272;-66
2022/04/12 08:31:30;;;;;;;1.07;1.07;;;14.50;99.90;;;;;;5028672;28;20311;-65
2022/04/12 08:33:57;;;;;;;0.90;0.90;;;14.70;99.90;;;;;;5031621;28;20234;-65
2022/04/12 08:36:26;;;;;;;1.17;1.17;;;14.70;99.90;;;;;;5029375;28;20291;-65
2022/04/12 08:38:53;;;;;;;1.00;1.00;;;14.90;99.90;;;;;;5028313;28;20979;-68
2022/04/12 08:41:23;;;;;;;0.80;0.80;;;15.20;99.90;;;;;;5029220;28;20233;-65
2022/04/12 08:43:56;;;;;;;0.90;0.90;;;15.30;99.90;;;;;;5032658;28;20597;-65
2022/04/12 08:46:25;;;;;;;0.77;0.77;;;15.40;99.90;;;;;;5029962;28;20201;-66
2022/04/12 08:48:54;;;;;;;0.90;0.90;;;15.40;99.90;;;;;;5031014;28;20230;-66
2022/04/12 08:51:22;;;;;;;1.07;0.97;;;15.40;99.90;;;;;;5031163;28;20204;-66
2022/04/12 08:53:51;;;;;;;1.17;0.90;;;15.50;99.90;;;;;;5027701;28;20225;-66
2022/04/12 08:56:19;;;;;;;1.00;1.00;;;15.60;99.90;;;;;;5033249;28;20205;-66
2022/04/12 08:58:46;;;;;;;1.00;1.00;;;15.50;99.90;;;;;;5036220;28;20669;-66
2022/04/12 09:01:14;;;;;;;1.37;1.27;;;15.60;99.90;;;;;;5032901;28;20209;-68
2022/04/12 09:03:41;;;;;;;1.10;1.10;;;15.70;99.90;;;;;;5032237;28;20224;-65
2022/04/12 09:06:11;;;;;;;1.30;1.20;;;15.70;99.90;;;;;;5034474;28;20258;-65
2022/04/12 09:08:39;;;;;;;1.20;1.20;;;15.70;99.90;;;;;;5032440;28;20216;-68
2022/04/12 09:11:08;;;;;;;1.57;1.33;;;15.80;99.90;;;;;;5033385;28;20262;-67
2022/04/12 09:13:36;;;;;;;1.27;1.23;;;15.80;99.90;;;;;;5034618;28;20220;-65
2022/04/12 09:16:09;;;;;;;1.30;1.30;;;15.90;99.90;;;;;;5022491;28;20215;-65
2022/04/12 09:18:38;;;;;;;1.43;1.43;;;16.20;99.90;;;;;;5028977;28;20270;-67
2022/04/12 09:21:12;;;;;;;1.93;1.50;;;16.30;99.90;;;;;;5030468;28;20282;-68
2022/04/12 09:23:46;;;;;;;1.57;1.47;;;16.30;99.90;;;;;;5029242;28;20266;-67
2022/04/12 09:26:23;;;;;;;1.50;1.40;;;16.30;99.90;;;;;;5025482;28;20229;-67
2022/04/12 09:28:52;;;;;;;1.30;1.30;;;16.50;99.90;;;;;;5029222;28;20750;-67
2022/04/12 09:31:19;;;;;;;1.40;1.30;;;16.70;99.90;;;;;;5027795;28;20209;-67
2022/04/12 09:33:48;;;;;;;1.20;1.20;;;16.70;99.90;;;;;;5028302;28;20306;-68
2022/04/12 09:36:15;;;;;;;1.23;1.20;;;16.90;99.90;;;;;;5023964;28;20201;-67
2022/04/12 09:38:43;;;;;;;1.40;1.40;;;17.10;99.90;;;;;;5028728;28;20670;-66
2022/04/12 09:41:23;;;;;;;1.57;1.47;;;17.30;99.90;;;;;;5029444;28;20208;-67
2022/04/12 09:44:08;;;;;;;1.40;1.40;;;17.30;99.90;;;;;;5030945;28;20303;-66
2022/04/12 09:46:37;;;;;;;1.40;1.30;;;17.40;99.90;;;;;;5030498;28;20250;-66
2022/04/12 09:49:04;;;;;;;1.40;1.30;;;17.50;99.90;;;;;;5030306;28;20327;-66
2022/04/12 09:51:32;;;;;;;1.23;1.17;;;17.40;99.90;;;;;;5027349;28;20288;-68
2022/04/12 09:53:59;;;;;;;1.27;1.20;;;17.50;99.90;;;;;;5031630;28;20307;-67
2022/04/12 09:56:29;;;;;;;1.33;1.33;;;17.60;99.90;;;;;;5029908;28;20572;-67
2022/04/12 09:58:58;;;;;;;1.50;1.50;;;17.80;99.90;;;;;;5021774;28;20682;-66
2022/04/12 10:01:26;;;;;;;1.30;1.30;;;17.80;99.90;;;;;;5032211;28;20273;-69
2022/04/12 10:03:55;;;;;;;1.40;1.30;;;17.80;99.90;;;;;;5036017;28;20295;-66
2022/04/12 10:06:24;;;;;;;1.47;1.37;;;17.80;99.90;;;;;;5028006;28;20204;-66
2022/04/12 10:08:54;;;;;;;1.20;1.20;;;17.90;99.90;;;;;;5026998;28;20780;-65
2022/04/12 10:11:21;;;;;;;1.40;1.30;;;17.80;99.90;;;;;;5029319;28;20217;-67
2022/04/12 10:13:50;;;;;;;1.90;1.20;;;17.90;99.90;;;;;;5025876;28;20778;-66
2022/04/12 10:16:19;;;;;;;1.30;1.20;;;17.90;99.90;;;;;;5024123;28;20267;-66
2022/04/12 10:18:47;;;;;;;1.38;1.27;;;17.80;99.90;;;;;;5037736;28;20207;-68
2022/04/12 10:21:15;;;;;;;1.10;1.10;;;17.90;99.90;;;;;;5031459;28;20288;-69
2022/04/12 10:23:45;;;;;;;1.10;1.10;;;18.10;99.90;;;;;;5027829;28;20228;-68
2022/04/12 10:26:12;;;;;;;1.10;1.10;;;18.30;99.90;;;;;;5018713;28;20276;-65
2022/04/12 10:28:40;;;;;;;0.97;0.97;;;18.40;99.90;;;;;;5025997;28;20220;-65
2022/04/12 10:31:23;;;;;;;1.10;1.10;;;18.40;99.90;;;;;;5025363;28;20295;-66
2022/04/12 10:34:04;;;;;;;1.13;1.00;;;18.40;99.90;;;;;;5019780;28;20302;-65
2022/04/12 10:37:04;;;;;;;1.17;1.00;;;18.40;99.90;;;;;;5019551;28;20211;-65
2022/04/12 10:39:33;;;;;;;1.20;1.10;;;18.50;99.90;;;;;;5027829;28;20201;-64
2022/04/12 10:42:05;;;;;;;1.00;1.00;;;18.50;99.90;;;;;;5030271;28;20213;-66
2022/04/12 10:44:43;;;;;;;0.97;0.97;;;18.60;99.90;;;;;;5030218;28;20319;-65
2022/04/12 10:47:32;;;;;;;0.97;0.97;;;18.60;99.90;;;;;;5016072;28;20302;-66
2022/04/12 10:50:00;;;;;;;1.00;1.00;;;18.80;99.90;;;;;;5024365;28;20228;-65
2022/04/12 10:52:42;;;;;;;1.00;1.00;;;19.00;99.90;;;;;;5030625;28;20232;-63
2022/04/12 10:55:11;;;;;;;1.08;1.00;;;19.10;99.90;;;;;;5025739;28;20677;-67
2022/04/12 10:57:39;;;;;;;1.07;0.97;;;19.00;99.90;;;;;;5021242;28;20283;-64
2022/04/12 11:00:10;;;;;;;1.00;1.00;;;19.00;99.90;;;;;;5030901;28;20228;-65
2022/04/12 11:02:43;;;;;;;1.00;1.00;;;19.00;99.90;;;;;;5031056;28;20295;-69
2022/04/12 11:05:43;;;;;;;1.17;1.17;;;19.10;99.90;;;;;;5027522;28;20209;-63
2022/04/12 11:08:47;;;;;;;1.10;1.10;;;19.20;99.90;;;;;;5027664;28;20618;-65
2022/04/12 11:11:22;;;;;;;0.90;0.90;;;19.20;99.90;;;;;;5034240;28;20293;-64
2022/04/12 11:13:53;;;;;;;1.10;1.10;;;19.20;99.90;;;;;;5029153;28;20224;-68
2022/04/12 11:16:21;;;;;;;1.17;1.17;;;19.30;99.90;;;;;;5039602;28;20232;-67
2022/04/12 11:18:51;;;;;;;0.90;0.90;;;19.30;99.90;;;;;;5038888;28;20242;-66
2022/04/12 11:21:19;;;;;;;1.00;1.00;;;19.40;99.90;;;;;;5038247;28;20652;-66
2022/04/12 11:23:48;;;;;;;1.17;1.17;;;19.50;99.90;;;;;;5036446;28;20315;-65
2022/04/12 11:26:36;;;;;;;1.00;1.00;;;19.50;99.90;;;;;;5021255;28;20324;-67
2022/04/12 11:29:07;;;;;;;1.30;1.20;;;19.60;99.90;;;;;;5028074;28;20220;-66
2022/04/12 11:31:36;;;;;;;1.07;1.07;;;19.70;99.90;;;;;;5033858;28;20193;-66
2022/04/12 11:34:06;;;;;;;0.80;0.80;;;19.70;99.90;;;;;;5033613;28;20239;-64
2022/04/12 11:36:33;;;;;;;1.10;1.10;;;19.90;99.90;;;;;;5033394;28;20228;-65
2022/04/12 11:39:00;;;;;;;1.00;1.00;;;20.00;99.90;;;;;;5032005;28;20302;-67
2022/04/12 11:41:29;;;;;;;1.10;1.10;;;20.10;99.90;;;;;;5032244;28;20267;-65
2022/04/12 11:44:00;;;;;;;1.10;1.10;;;20.20;99.90;;;;;;5034833;28;20224;-65
2022/04/12 11:46:29;;;;;;;0.97;0.97;;;20.10;99.90;;;;;;5033256;28;20204;-66
2022/04/12 11:49:06;;;;;;;1.03;1.03;;;20.10;99.90;;;;;;5034199;28;22099;-64
2022/04/12 11:51:38;;;;;;;1.03;1.00;;;20.00;99.90;;;;;;5034889;28;20271;-67
2022/04/12 11:54:22;;;;;;;1.00;1.00;;;20.00;99.90;;;;;;5034282;28;20224;-66
2022/04/12 11:57:04;;;;;;;0.87;0.87;;;20.00;99.90;;;;;;5032236;28;20211;-66
2022/04/12 11:59:32;;;;;;;1.10;1.10;;;20.10;99.90;;;;;;5031497;28;20203;-67
2022/04/12 12:02:02;;;;;;;1.10;1.00;;;20.30;99.90;;;;;;5029819;28;20251;-69
2022/04/12 12:04:33;;;;;;;1.15;1.15;;;20.30;99.90;;;;;;5033079;28;20228;-67
2022/04/12 12:07:02;;;;;;;1.30;1.20;;;20.50;99.90;;;;;;5032145;28;20679;-66
2022/04/12 12:09:29;;;;;;;1.00;1.00;;;20.50;99.90;;;;;;5033913;28;20221;-66
2022/04/12 12:12:01;;;;;;;1.13;1.00;;;20.60;99.90;;;;;;5034754;28;20295;-65
2022/04/12 12:14:29;;;;;;;1.00;1.00;;;20.80;99.90;;;;;;5032448;28;20252;-67
2022/04/12 12:17:04;;;;;;;1.02;1.02;;;20.90;99.90;;;;;;5039104;28;20208;-65
2022/04/12 12:19:37;;;;;;;1.00;1.00;;;20.90;99.90;;;;;;5032312;28;20200;-67
2022/04/12 12:22:06;;;;;;;0.90;0.90;;;21.00;99.90;;;;;;5033607;28;20205;-66
2022/04/12 12:24:37;;;;;;;1.47;1.10;;;21.30;99.90;;;;;;5031385;28;20228;-69
2022/04/12 12:27:05;;;;;;;0.90;0.90;;;21.60;99.90;;;;;;5030051;28;20197;-67
2022/04/12 12:29:37;;;;;;;1.42;1.20;;;21.60;99.90;;;;;;5033867;28;20330;-65
2022/04/12 12:32:06;;;;;;;1.10;1.00;;;21.60;99.90;;;;;;5033157;28;20977;-69
2022/04/12 12:34:35;;;;;;;1.10;1.10;;;21.70;99.90;;;;;;5046462;22;20254;-68
2022/04/12 12:37:07;;;;;;;0.90;0.90;;;21.50;99.90;;;;;;5032877;28;20204;-67
2022/04/12 12:39:38;;;;;;;0.83;0.83;;;21.50;99.90;;;;;;5028799;28;20220;-67
2022/04/12 12:42:05;;;;;;;0.98;0.98;;;21.60;99.90;;;;;;5033609;28;20224;-68
2022/04/12 12:44:34;;;;;;;0.93;0.90;;;21.60;99.90;;;;;;5032859;28;20251;-66
2022/04/12 12:47:04;;;;;;;0.80;0.80;;;21.60;99.90;;;;;;5028282;28;20208;-67
2022/04/12 12:49:40;;;;;;;1.00;1.00;;;21.60;99.90;;;;;;5031666;28;20224;-67
2022/04/12 12:52:09;;;;;;;1.00;1.00;;;21.80;99.90;;;;;;5030857;28;20212;-67
2022/04/12 12:54:37;;;;;;;0.90;0.90;;;21.80;99.90;;;;;;5033778;28;20225;-67
2022/04/12 12:57:06;;;;;;;0.88;0.88;;;21.80;99.90;;;;;;5028973;28;20212;-67
2022/04/12 12:59:34;;;;;;;0.93;0.93;;;21.80;99.90;;;;;;5026513;28;20216;-67
2022/04/12 13:02:09;;;;;;;0.70;0.70;;;21.80;99.90;;;;;;5032369;28;20201;-67
2022/04/12 13:04:38;;;;;;;1.20;1.20;;;22.00;99.90;;;;;;5030760;28;20227;-66
2022/04/12 13:07:07;;;;;;;0.87;0.87;;;22.00;99.90;;;;;;5029957;28;20204;-68
2022/04/12 13:09:40;;;;;;;0.90;0.90;;;22.00;99.90;;;;;;5036111;28;20241;-65
2022/04/12 13:12:08;;;;;;;0.95;0.90;;;22.10;99.90;;;;;;5034263;28;20201;-69
2022/04/12 13:14:35;;;;;;;0.90;0.90;;;22.30;99.90;;;;;;5033334;28;20785;-68
2022/04/12 13:17:02;;;;;;;1.00;1.00;;;22.20;99.90;;;;;;5032198;28;20667;-67
2022/04/12 13:19:31;;;;;;;2.00;1.00;;;22.20;99.90;;;;;;5033576;28;20297;-68
2022/04/12 13:22:00;;;;;;;0.80;0.80;;;22.20;99.90;;;;;;5032275;28;20212;-68
2022/04/12 13:24:28;;;;;;;0.88;0.88;;;22.30;99.90;;;;;;5033990;28;20717;-67